Time;durP1;ratioP1;P1;durP2;ratioP2;P2;SDS_P1;SDS_P2;PMS_P1;PMS_P2;Temp;Humidity;BMP_temperature;BMP_pressure;BME280_temperature;BME280_humidity;BME280_pressure;Samples;Min_cycle;Max_cycle;Signal;HPM_P1;HPM_P2
2021/11/04 00:01:28;;;;;;;12.80;6.50;;;8.80;99.90;;;;;;4123620;28;20054;-64
2021/11/04 00:03:30;;;;;;;12.20;7.47;;;8.80;99.90;;;;;;4124270;28;20562;-64
2021/11/04 00:05:32;;;;;;;11.87;7.17;;;8.80;99.90;;;;;;4123755;28;20887;-64
2021/11/04 00:07:34;;;;;;;12.67;7.90;;;8.80;99.90;;;;;;4123549;28;20081;-64
2021/11/04 00:09:35;;;;;;;13.33;7.60;;;8.80;99.90;;;;;;4123676;28;20068;-64
2021/11/04 00:11:36;;;;;;;12.03;7.90;;;8.70;99.90;;;;;;4124841;28;20038;-63
2021/11/04 00:13:37;;;;;;;19.03;9.60;;;8.60;99.90;;;;;;4123569;28;20114;-65
2021/11/04 00:15:38;;;;;;;14.37;7.70;;;8.50;99.90;;;;;;4123915;28;20026;-63
2021/11/04 00:17:40;;;;;;;14.43;8.17;;;8.50;99.90;;;;;;4123350;28;20046;-65
2021/11/04 00:19:41;;;;;;;14.53;7.23;;;8.50;99.90;;;;;;4124697;28;20096;-65
2021/11/04 00:21:42;;;;;;;13.77;7.87;;;8.50;99.90;;;;;;4122988;28;20054;-64
2021/11/04 00:23:44;;;;;;;15.10;8.10;;;8.60;99.90;;;;;;4124686;28;20041;-65
2021/11/04 00:25:45;;;;;;;15.70;7.77;;;8.60;99.90;;;;;;4123360;28;20026;-65
2021/11/04 00:27:47;;;;;;;17.07;8.73;;;8.50;99.90;;;;;;4122222;28;20054;-65
2021/11/04 00:29:48;;;;;;;13.00;7.27;;;8.50;99.90;;;;;;4123644;28;20043;-65
2021/11/04 00:31:51;;;;;;;16.33;7.07;;;8.60;99.90;;;;;;4126569;28;20484;-67
2021/11/04 00:33:52;;;;;;;12.90;6.83;;;8.60;99.90;;;;;;4127005;28;20042;-65
2021/11/04 00:35:53;;;;;;;13.50;7.47;;;8.60;99.90;;;;;;4126484;28;20030;-64
2021/11/04 00:37:54;;;;;;;15.40;8.57;;;8.60;99.90;;;;;;4127252;28;20096;-64
2021/11/04 00:39:56;;;;;;;14.00;8.07;;;8.60;99.90;;;;;;4126258;28;20653;-64
2021/11/04 00:41:57;;;;;;;16.27;9.17;;;8.60;99.90;;;;;;4127252;28;20058;-66
2021/11/04 00:44:02;;;;;;;16.70;9.77;;;8.50;99.90;;;;;;4124112;28;20038;-65
2021/11/04 00:46:03;;;;;;;16.27;8.53;;;8.40;99.90;;;;;;4126580;28;20046;-64
2021/11/04 00:48:04;;;;;;;17.13;9.17;;;8.40;99.90;;;;;;4126204;28;20042;-66
2021/11/04 00:50:07;;;;;;;13.77;8.37;;;8.40;99.90;;;;;;4126931;28;20124;-64
2021/11/04 00:52:08;;;;;;;14.47;8.03;;;8.40;99.90;;;;;;4125543;28;20046;-65
2021/11/04 00:54:09;;;;;;;14.40;8.50;;;8.40;99.90;;;;;;4127583;28;20050;-66
2021/11/04 00:56:10;;;;;;;15.73;9.23;;;8.30;99.90;;;;;;4124488;28;20034;-65
2021/11/04 00:58:11;;;;;;;17.67;9.57;;;8.30;99.90;;;;;;4126662;28;20069;-65
2021/11/04 01:00:13;;;;;;;13.23;7.77;;;8.30;99.90;;;;;;4126090;28;20134;-64
2021/11/04 01:02:15;;;;;;;13.07;6.67;;;8.30;99.90;;;;;;4126657;28;20082;-66
2021/11/04 01:04:16;;;;;;;12.17;7.47;;;8.40;99.90;;;;;;4126950;28;20084;-65
2021/11/04 01:06:20;;;;;;;18.70;7.73;;;8.50;99.90;;;;;;4125911;28;20491;-66
2021/11/04 01:08:21;;;;;;;16.63;7.77;;;8.50;99.90;;;;;;4125231;28;20089;-65
2021/11/04 01:10:22;;;;;;;14.87;7.60;;;8.50;99.90;;;;;;4126063;28;20034;-65
2021/11/04 01:12:23;;;;;;;11.53;6.97;;;8.50;99.90;;;;;;4127177;28;20038;-64
2021/11/04 01:14:25;;;;;;;13.93;6.80;;;8.60;99.90;;;;;;4126038;28;20549;-65
2021/11/04 01:16:26;;;;;;;11.40;5.90;;;8.60;99.90;;;;;;4126800;28;20038;-65
2021/11/04 01:18:27;;;;;;;10.17;6.27;;;8.70;99.90;;;;;;4125670;28;20042;-66
2021/11/04 01:20:28;;;;;;;10.97;6.07;;;8.70;99.90;;;;;;4126631;28;20093;-65
2021/11/04 01:22:29;;;;;;;12.23;6.30;;;8.70;99.90;;;;;;4125905;28;20089;-65
2021/11/04 01:24:30;;;;;;;10.03;6.23;;;8.70;99.90;;;;;;4126749;28;20034;-65
2021/11/04 01:26:32;;;;;;;12.73;6.23;;;8.70;99.90;;;;;;4125995;28;20042;-63
2021/11/04 01:28:33;;;;;;;10.23;6.30;;;8.80;99.90;;;;;;4127112;28;20538;-64
2021/11/04 01:30:38;;;;;;;13.20;5.90;;;8.90;99.90;;;;;;4125373;28;20026;-65
2021/11/04 01:32:40;;;;;;;10.83;5.47;;;8.90;99.90;;;;;;4126312;28;20105;-65
2021/11/04 01:34:41;;;;;;;9.73;5.93;;;8.90;99.90;;;;;;4125686;28;20073;-65
2021/11/04 01:36:42;;;;;;;11.40;5.47;;;9.00;99.90;;;;;;4126091;28;20026;-65
2021/11/04 01:38:44;;;;;;;9.93;5.57;;;9.10;99.90;;;;;;4125695;28;20018;-65
2021/11/04 01:40:45;;;;;;;11.17;6.10;;;9.00;99.90;;;;;;4125065;28;20542;-65
2021/11/04 01:42:46;;;;;;;10.33;6.27;;;9.00;99.90;;;;;;4125494;28;20100;-64
2021/11/04 01:44:48;;;;;;;11.70;6.10;;;9.00;99.90;;;;;;4124510;28;20109;-65
2021/11/04 01:46:50;;;;;;;12.57;6.47;;;8.90;99.90;;;;;;4124819;28;20093;-68
2021/11/04 01:48:52;;;;;;;13.70;6.77;;;8.80;99.90;;;;;;4125378;28;20093;-65
2021/11/04 01:50:54;;;;;;;11.93;6.30;;;8.80;99.90;;;;;;4126410;28;20088;-64
2021/11/04 01:52:55;;;;;;;14.10;6.43;;;8.70;99.90;;;;;;4125369;28;20039;-65
2021/11/04 01:54:56;;;;;;;11.33;6.53;;;8.70;99.90;;;;;;4126363;28;20034;-64
2021/11/04 01:56:57;;;;;;;11.83;7.00;;;8.70;99.90;;;;;;4125055;28;20081;-64
2021/11/04 01:58:59;;;;;;;13.37;6.57;;;8.80;99.90;;;;;;4126852;28;20034;-67
2021/11/04 02:01:00;;;;;;;11.57;6.93;;;8.80;99.90;;;;;;4125204;28;20042;-66
2021/11/04 02:03:10;;;;;;;12.50;6.03;;;8.70;99.90;;;;;;4125774;28;20030;-65
2021/11/04 02:05:16;;;;;;;10.55;6.18;;;8.70;99.90;;;;;;4125344;28;20088;-64
2021/11/04 02:07:32;;;;;;;12.87;7.03;;;8.80;99.90;;;;;;4125857;28;20045;-67
2021/11/04 02:09:43;;;;;;;11.53;6.77;;;8.70;99.90;;;;;;4124674;28;20030;-66
2021/11/04 02:11:56;;;;;;;13.67;7.13;;;8.70;99.90;;;;;;4125998;28;20447;-65
2021/11/04 02:14:17;;;;;;;13.93;7.13;;;8.70;99.90;;;;;;4124762;28;20026;-66
2021/11/04 02:16:22;;;;;;;12.57;6.23;;;8.70;99.90;;;;;;4126315;28;20434;-65
2021/11/04 02:18:28;;;;;;;13.40;6.60;;;8.70;99.90;;;;;;4124956;28;20073;-66
2021/11/04 02:20:41;;;;;;;10.00;6.03;;;8.70;99.90;;;;;;4126332;28;20043;-65
2021/11/04 02:23:03;;;;;;;9.83;6.53;;;8.70;99.90;;;;;;4125352;28;20046;-65
2021/11/04 02:25:19;;;;;;;13.40;6.80;;;8.70;99.90;;;;;;4126055;28;20542;-64
2021/11/04 02:27:21;;;;;;;12.53;6.60;;;8.70;99.90;;;;;;4124765;28;20058;-64
2021/11/04 02:29:22;;;;;;;14.23;7.70;;;8.70;99.90;;;;;;4126250;28;20119;-64
2021/11/04 02:31:24;;;;;;;10.90;6.47;;;8.60;99.90;;;;;;4124760;28;20042;-63
2021/11/04 02:33:25;;;;;;;14.60;7.17;;;8.60;99.90;;;;;;4125523;28;20030;-65
2021/11/04 02:35:27;;;;;;;14.43;7.27;;;8.60;99.90;;;;;;4124946;28;20018;-65
2021/11/04 02:37:30;;;;;;;13.23;6.17;;;8.60;99.90;;;;;;4125461;28;20030;-67
2021/11/04 02:39:33;;;;;;;11.87;5.87;;;8.60;99.90;;;;;;4125019;28;20026;-66
2021/11/04 02:41:34;;;;;;;12.57;7.00;;;8.60;99.90;;;;;;4124841;28;20100;-66
2021/11/04 02:43:36;;;;;;;12.03;7.30;;;8.60;99.90;;;;;;4125203;28;20034;-66
2021/11/04 02:45:38;;;;;;;14.83;7.23;;;8.60;99.90;;;;;;4124506;28;20565;-66
2021/11/04 02:47:40;;;;;;;11.37;6.83;;;8.50;99.90;;;;;;4125746;28;20548;-65
2021/11/04 02:49:43;;;;;;;12.07;6.43;;;8.50;99.90;;;;;;4124268;28;20090;-68
2021/11/04 02:51:46;;;;;;;12.70;6.87;;;8.50;99.90;;;;;;4125154;28;20136;-66
2021/11/04 02:53:48;;;;;;;11.30;6.60;;;8.60;99.90;;;;;;4124009;28;20034;-68
2021/11/04 02:55:50;;;;;;;11.50;6.13;;;8.60;99.90;;;;;;4125317;28;20072;-65
2021/11/04 02:57:51;;;;;;;12.20;6.77;;;8.60;99.90;;;;;;4123980;28;20022;-69
2021/11/04 02:59:52;;;;;;;11.27;6.43;;;8.60;99.90;;;;;;4125907;28;20047;-66
2021/11/04 03:01:57;;;;;;;12.37;6.83;;;8.70;99.90;;;;;;4123592;28;20050;-66
2021/11/04 03:03:59;;;;;;;10.03;6.30;;;8.70;99.90;;;;;;4125419;28;20096;-65
2021/11/04 03:06:00;;;;;;;11.23;6.57;;;8.70;99.90;;;;;;4124109;28;20034;-66
2021/11/04 03:08:01;;;;;;;10.67;6.10;;;8.70;99.90;;;;;;4124956;28;20035;-64
2021/11/04 03:10:04;;;;;;;12.03;6.77;;;8.80;99.90;;;;;;4123865;28;20062;-65
2021/11/04 03:12:07;;;;;;;13.03;6.93;;;8.90;99.90;;;;;;4124952;28;20548;-66
2021/11/04 03:14:09;;;;;;;10.90;6.37;;;8.90;99.90;;;;;;4124221;28;20038;-66
2021/11/04 03:16:12;;;;;;;12.77;6.27;;;8.90;99.90;;;;;;4124414;28;20073;-65
2021/11/04 03:18:16;;;;;;;13.00;7.33;;;8.90;99.90;;;;;;4124585;28;20022;-67
2021/11/04 03:20:18;;;;;;;11.10;6.90;;;8.80;99.90;;;;;;4124365;28;20483;-64
2021/11/04 03:22:20;;;;;;;12.80;6.87;;;8.80;99.90;;;;;;4124865;28;20490;-67
2021/11/04 03:24:24;;;;;;;12.20;7.53;;;8.70;99.90;;;;;;4123862;28;20088;-66
2021/11/04 03:26:28;;;;;;;12.53;7.70;;;8.70;99.90;;;;;;4125428;28;20038;-68
2021/11/04 03:28:31;;;;;;;16.57;7.80;;;8.70;99.90;;;;;;4123272;28;20081;-66
2021/11/04 03:30:36;;;;;;;11.43;7.10;;;8.70;99.90;;;;;;4125007;28;20038;-65
2021/11/04 03:32:39;;;;;;;14.87;7.23;;;8.70;99.90;;;;;;4123611;28;20081;-64
2021/11/04 03:34:41;;;;;;;13.67;6.53;;;8.70;99.90;;;;;;4125101;28;20030;-67
2021/11/04 03:36:48;;;;;;;9.43;5.63;;;8.80;99.90;;;;;;4124082;28;20085;-65
2021/11/04 03:38:50;;;;;;;11.20;6.70;;;8.90;99.90;;;;;;4125093;28;20097;-65
2021/11/04 03:40:55;;;;;;;11.30;6.30;;;8.90;99.90;;;;;;4123358;28;20080;-65
2021/11/04 03:42:57;;;;;;;8.43;5.83;;;8.90;99.90;;;;;;4124433;28;20092;-65
2021/11/04 03:45:01;;;;;;;8.87;5.60;;;9.10;99.90;;;;;;4123676;28;20076;-66
2021/11/04 03:47:03;;;;;;;8.70;4.80;;;9.20;99.90;;;;;;4124294;28;20450;-65
2021/11/04 03:49:04;;;;;;;8.20;5.10;;;9.20;99.90;;;;;;4123710;28;20113;-68
2021/11/04 03:51:06;;;;;;;9.57;4.77;;;9.30;99.90;;;;;;4124838;28;20046;-65
2021/11/04 03:53:08;;;;;;;8.70;4.47;;;9.50;99.90;;;;;;4124128;28;20019;-66
2021/11/04 03:55:11;;;;;;;7.47;4.27;;;9.50;99.90;;;;;;4124074;28;20104;-68
2021/11/04 03:57:13;;;;;;;7.37;4.60;;;9.70;99.90;;;;;;4123778;28;20026;-66
2021/11/04 03:59:14;;;;;;;6.63;3.90;;;9.70;99.90;;;;;;4124079;28;20117;-65
2021/11/04 04:01:15;;;;;;;8.63;4.67;;;9.80;99.90;;;;;;4124993;28;20077;-65
2021/11/04 04:03:19;;;;;;;7.03;4.40;;;9.70;99.90;;;;;;4123367;28;20038;-66
2021/11/04 04:05:32;;;;;;;8.97;4.70;;;9.80;99.90;;;;;;4125820;28;20185;-65
2021/11/04 04:07:33;;;;;;;8.30;4.50;;;9.80;99.90;;;;;;4126610;28;20034;-65
2021/11/04 04:09:34;;;;;;;7.60;4.07;;;9.80;99.90;;;;;;4127710;28;20815;-66
2021/11/04 04:11:36;;;;;;;8.77;4.63;;;9.70;99.90;;;;;;4127075;28;20101;-66
2021/11/04 04:13:37;;;;;;;8.83;4.87;;;9.70;99.90;;;;;;4127046;28;20385;-65
2021/11/04 04:15:38;;;;;;;9.33;4.43;;;9.70;99.90;;;;;;4126311;28;20042;-65
2021/11/04 04:17:39;;;;;;;8.27;4.50;;;9.70;99.90;;;;;;4127933;28;20026;-64
2021/11/04 04:19:40;;;;;;;7.70;4.93;;;9.70;99.90;;;;;;4126731;28;20031;-64
2021/11/04 04:21:41;;;;;;;7.63;4.23;;;9.80;99.90;;;;;;4125323;28;20118;-65
2021/11/04 04:23:43;;;;;;;9.13;4.83;;;9.80;99.90;;;;;;4126807;28;20447;-63
2021/11/04 04:25:45;;;;;;;9.87;4.53;;;9.70;99.90;;;;;;4127109;28;20030;-64
2021/11/04 04:27:46;;;;;;;8.87;5.20;;;9.80;99.90;;;;;;4126325;28;20035;-63
2021/11/04 04:29:47;;;;;;;10.80;4.90;;;9.70;99.90;;;;;;4126982;28;20097;-65
2021/11/04 04:31:48;;;;;;;6.63;4.43;;;9.70;99.90;;;;;;4126492;28;20070;-66
2021/11/04 04:33:49;;;;;;;7.97;4.70;;;9.70;99.90;;;;;;4126625;28;20803;-65
2021/11/04 04:35:51;;;;;;;7.97;4.63;;;9.60;99.90;;;;;;4127405;28;20077;-65
2021/11/04 04:37:52;;;;;;;8.03;3.97;;;9.60;99.90;;;;;;4125783;28;20093;-70
2021/11/04 04:39:53;;;;;;;11.37;4.80;;;9.60;99.90;;;;;;4127304;28;20041;-64
2021/11/04 04:41:54;;;;;;;8.00;4.33;;;9.60;99.90;;;;;;4126016;28;20046;-65
2021/11/04 04:43:55;;;;;;;10.97;5.20;;;9.60;99.90;;;;;;4127037;28;20038;-67
2021/11/04 04:45:57;;;;;;;10.37;5.40;;;9.60;99.90;;;;;;4125364;28;20049;-64
2021/11/04 04:47:58;;;;;;;7.90;4.87;;;9.60;99.90;;;;;;4127626;28;20030;-65
2021/11/04 04:49:59;;;;;;;8.73;5.03;;;9.50;99.90;;;;;;4126257;28;20042;-65
2021/11/04 04:52:00;;;;;;;9.57;4.87;;;9.50;99.90;;;;;;4127218;28;20113;-64
2021/11/04 04:54:02;;;;;;;8.47;4.50;;;9.40;99.90;;;;;;4126195;28;20034;-65
2021/11/04 04:56:03;;;;;;;9.47;4.73;;;9.40;99.90;;;;;;4125474;28;20038;-64
2021/11/04 04:58:06;;;;;;;7.80;4.60;;;9.40;99.90;;;;;;4125954;28;20457;-65
2021/11/04 05:00:11;;;;;;;8.57;4.80;;;9.40;99.90;;;;;;4125776;28;20038;-65
2021/11/04 05:02:13;;;;;;;7.23;4.13;;;9.50;99.90;;;;;;4117737;28;20054;-64
2021/11/04 05:04:15;;;;;;;11.47;4.90;;;9.60;99.90;;;;;;4125635;28;20050;-66
2021/11/04 05:06:16;;;;;;;6.10;4.00;;;9.70;99.90;;;;;;4126690;28;20022;-65
2021/11/04 05:08:17;;;;;;;8.97;4.43;;;9.70;99.90;;;;;;4125447;28;20034;-64
2021/11/04 05:10:18;;;;;;;10.80;4.73;;;9.70;99.90;;;;;;4125906;28;20058;-65
2021/11/04 05:12:19;;;;;;;10.93;5.23;;;9.70;99.90;;;;;;4126091;28;20092;-64
2021/11/04 05:14:20;;;;;;;11.47;4.40;;;9.70;99.90;;;;;;4126669;28;20105;-66
2021/11/04 05:16:22;;;;;;;8.37;5.03;;;9.70;99.90;;;;;;4124719;28;20077;-63
2021/11/04 05:18:23;;;;;;;12.17;4.73;;;9.70;99.90;;;;;;4126528;28;20045;-64
2021/11/04 05:20:24;;;;;;;17.50;5.60;;;9.70;99.90;;;;;;4125343;28;20030;-64
2021/11/04 05:22:25;;;;;;;11.10;4.40;;;9.80;99.90;;;;;;4134186;28;20042;-66
2021/11/04 05:24:28;;;;;;;10.03;5.00;;;9.80;99.90;;;;;;4141803;28;20038;-63
2021/11/04 05:26:29;;;;;;;9.73;5.33;;;9.70;99.90;;;;;;4142481;28;20051;-66
2021/11/04 05:28:30;;;;;;;12.40;6.83;;;9.80;99.90;;;;;;4133988;28;20538;-64
2021/11/04 05:30:32;;;;;;;11.30;5.97;;;9.80;99.90;;;;;;4124229;28;20046;-63
2021/11/04 05:32:33;;;;;;;9.27;4.87;;;9.80;99.90;;;;;;4121855;28;20081;-64
2021/11/04 05:34:39;;;;;;;11.30;5.20;;;9.80;99.90;;;;;;4125224;28;20042;-65
2021/11/04 05:36:40;;;;;;;11.20;4.80;;;9.70;99.90;;;;;;4125385;28;20061;-63
2021/11/04 05:38:41;;;;;;;7.37;4.80;;;9.70;99.90;;;;;;4125351;28;20043;-65
2021/11/04 05:40:42;;;;;;;8.67;5.33;;;9.60;99.90;;;;;;4125725;28;20490;-65
2021/11/04 05:42:44;;;;;;;9.90;6.23;;;9.70;99.90;;;;;;4124171;28;20113;-65
2021/11/04 05:44:45;;;;;;;13.43;6.27;;;9.70;99.90;;;;;;4126113;28;20092;-65
2021/11/04 05:46:47;;;;;;;11.13;5.97;;;9.60;99.90;;;;;;4125013;28;20042;-65
2021/11/04 05:48:48;;;;;;;12.50;5.67;;;9.60;99.90;;;;;;4126334;28;20455;-65
2021/11/04 05:50:49;;;;;;;8.37;5.70;;;9.60;99.90;;;;;;4124928;28;20022;-64
2021/11/04 05:52:50;;;;;;;9.87;5.63;;;9.60;99.90;;;;;;4126517;28;20726;-64
2021/11/04 05:54:54;;;;;;;16.90;5.67;;;9.60;99.90;;;;;;4124731;28;20046;-64
2021/11/04 05:56:55;;;;;;;13.43;6.03;;;9.60;99.90;;;;;;4125767;28;20042;-64
2021/11/04 05:58:56;;;;;;;12.60;6.03;;;9.50;99.90;;;;;;4124344;28;20042;-65
2021/11/04 06:00:58;;;;;;;12.87;5.87;;;9.50;99.90;;;;;;4124306;28;20030;-64
2021/11/04 06:02:59;;;;;;;16.07;6.33;;;9.50;99.90;;;;;;4124607;28;20046;-65
2021/11/04 06:05:00;;;;;;;16.53;6.13;;;9.50;99.90;;;;;;4124739;28;20120;-64
2021/11/04 06:07:05;;;;;;;12.47;5.73;;;9.50;99.90;;;;;;4125192;28;20185;-63
2021/11/04 06:09:06;;;;;;;10.17;5.70;;;9.50;99.90;;;;;;4125216;28;20046;-62
2021/11/04 06:11:07;;;;;;;10.40;6.00;;;9.50;99.90;;;;;;4124570;28;20035;-63
2021/11/04 06:13:08;;;;;;;12.97;6.10;;;9.50;99.90;;;;;;4123791;28;20089;-63
2021/11/04 06:15:10;;;;;;;10.70;6.13;;;9.60;99.90;;;;;;4125419;28;20065;-64
2021/11/04 06:17:11;;;;;;;11.63;6.23;;;9.70;99.90;;;;;;4124144;28;20038;-63
2021/11/04 06:19:12;;;;;;;13.03;5.67;;;9.90;99.90;;;;;;4124436;28;20046;-63
2021/11/04 06:21:13;;;;;;;9.83;5.27;;;10.00;99.90;;;;;;4123823;28;20124;-65
2021/11/04 06:23:14;;;;;;;12.90;5.57;;;10.10;99.90;;;;;;4125157;28;20081;-64
2021/11/04 06:25:16;;;;;;;12.43;5.73;;;10.20;99.90;;;;;;4123926;28;20118;-63
2021/11/04 06:27:17;;;;;;;10.03;5.40;;;10.20;99.90;;;;;;4125609;28;20100;-62
2021/11/04 06:29:18;;;;;;;11.27;4.70;;;10.20;99.90;;;;;;4107472;28;20058;-63
2021/11/04 06:31:19;;;;;;;9.27;4.93;;;10.30;99.90;;;;;;4108534;28;20089;-62
2021/11/04 06:33:20;;;;;;;14.97;5.67;;;10.30;99.90;;;;;;4108117;28;20087;-63
2021/11/04 06:35:21;;;;;;;10.87;5.97;;;10.40;99.90;;;;;;4108580;28;20019;-63
2021/11/04 06:37:22;;;;;;;12.03;5.00;;;10.40;99.90;;;;;;4108119;28;20142;-63
2021/11/04 06:39:24;;;;;;;9.20;4.70;;;10.50;99.90;;;;;;4108404;28;20039;-64
2021/11/04 06:41:25;;;;;;;9.63;4.90;;;10.60;99.90;;;;;;4108653;28;20054;-63
2021/11/04 06:43:27;;;;;;;8.03;5.27;;;10.70;99.90;;;;;;4108172;28;20109;-64
2021/11/04 06:45:29;;;;;;;8.30;4.70;;;10.70;99.90;;;;;;4108910;28;20081;-63
2021/11/04 06:47:59;;;;;;;6.20;4.37;;;10.80;99.90;;;;;;4107967;28;20641;-64
2021/11/04 06:50:02;;;;;;;10.85;3.72;;;10.90;99.90;;;;;;4109017;28;20046;-64
2021/11/04 06:52:11;;;;;;;10.97;4.67;;;11.00;99.90;;;;;;4107572;28;20094;-64
2021/11/04 06:54:14;;;;;;;7.67;4.30;;;11.00;99.90;;;;;;4109071;28;20030;-64
2021/11/04 06:56:19;;;;;;;8.80;4.53;;;11.00;99.90;;;;;;4106170;28;20817;-64
2021/11/04 06:58:28;;;;;;;12.93;4.80;;;11.00;99.90;;;;;;4108728;28;20114;-65
2021/11/04 07:00:31;;;;;;;6.43;3.80;;;11.00;99.90;;;;;;4107455;28;20089;-64
2021/11/04 07:02:41;;;;;;;9.67;4.50;;;10.90;99.90;;;;;;4109188;28;20034;-64
2021/11/04 07:04:43;;;;;;;9.13;4.72;;;11.00;99.90;;;;;;4107702;28;20471;-65
2021/11/04 07:06:46;;;;;;;9.17;4.30;;;11.00;99.90;;;;;;4110952;28;20068;-64
2021/11/04 07:08:57;;;;;;;8.20;4.40;;;11.10;99.90;;;;;;4120491;28;20064;-63
2021/11/04 07:11:00;;;;;;;10.52;4.57;;;11.20;99.90;;;;;;4123510;28;20364;-64
2021/11/04 07:13:01;;;;;;;7.77;4.63;;;11.40;99.90;;;;;;4123436;28;20030;-62
2021/11/04 07:15:03;;;;;;;7.73;3.93;;;11.50;99.90;;;;;;4123652;28;20035;-64
2021/11/04 07:17:04;;;;;;;12.27;4.27;;;11.60;99.90;;;;;;4121691;28;20026;-64
2021/11/04 07:19:06;;;;;;;10.60;4.33;;;11.70;99.90;;;;;;4123518;28;20536;-64
2021/11/04 07:21:23;;;;;;;8.97;4.00;;;11.70;99.90;;;;;;4123484;28;20109;-63
2021/11/04 07:23:46;;;;;;;6.70;3.50;;;11.70;99.90;;;;;;4125845;28;20580;-62
2021/11/04 07:25:51;;;;;;;6.53;3.83;;;11.80;99.90;;;;;;4122796;28;20026;-62
2021/11/04 07:27:56;;;;;;;11.90;4.30;;;11.80;99.90;;;;;;4124546;28;20042;-61
2021/11/04 07:30:02;;;;;;;6.80;3.40;;;11.80;99.90;;;;;;4124296;28;20042;-62
2021/11/04 07:32:04;;;;;;;10.60;4.50;;;11.80;99.90;;;;;;4124977;28;20452;-60
2021/11/04 07:34:08;;;;;;;13.33;3.87;;;11.80;99.90;;;;;;4123536;28;20073;-63
2021/11/04 07:36:11;;;;;;;8.50;4.40;;;11.80;99.90;;;;;;4123602;28;20034;-63
2021/11/04 07:38:14;;;;;;;9.00;4.23;;;11.80;99.90;;;;;;4123563;28;20018;-63
2021/11/04 07:40:17;;;;;;;12.37;3.83;;;11.80;99.90;;;;;;4124839;28;20030;-64
2021/11/04 07:42:18;;;;;;;9.07;3.53;;;11.90;99.90;;;;;;4127320;28;20078;-64
2021/11/04 07:44:20;;;;;;;10.63;4.43;;;12.00;99.90;;;;;;4127593;28;20080;-63
2021/11/04 07:46:21;;;;;;;14.07;3.83;;;12.20;99.90;;;;;;4127625;28;20057;-63
2021/11/04 07:48:22;;;;;;;8.03;3.57;;;12.50;99.90;;;;;;4127408;28;20026;-62
2021/11/04 07:50:26;;;;;;;8.87;4.07;;;12.60;99.90;;;;;;4127015;28;20038;-62
2021/11/04 07:52:28;;;;;;;6.47;3.20;;;12.80;99.90;;;;;;4125722;28;20034;-61
2021/11/04 07:54:33;;;;;;;5.90;3.70;;;12.90;99.90;;;;;;4128310;28;20497;-63
2021/11/04 07:56:34;;;;;;;6.97;3.60;;;13.10;99.90;;;;;;4126394;28;20031;-62
2021/11/04 07:58:38;;;;;;;8.70;3.87;;;13.10;99.90;;;;;;4127680;28;20080;-62
2021/11/04 08:00:41;;;;;;;6.30;3.60;;;13.20;99.90;;;;;;4126373;28;20038;-62
2021/11/04 08:02:42;;;;;;;5.50;3.27;;;13.20;99.90;;;;;;4128026;28;20112;-62
2021/11/04 08:04:43;;;;;;;16.60;4.57;;;13.20;99.90;;;;;;4125874;28;20450;-62
2021/11/04 08:06:44;;;;;;;7.00;3.30;;;13.30;99.90;;;;;;4127564;28;20034;-64
2021/11/04 08:08:46;;;;;;;6.70;4.33;;;13.30;99.90;;;;;;4126620;28;20489;-61
2021/11/04 08:10:50;;;;;;;9.73;3.33;;;13.40;99.90;;;;;;4126779;28;20144;-62
2021/11/04 08:12:52;;;;;;;9.10;4.70;;;13.40;99.90;;;;;;4126052;28;20038;-63
2021/11/04 08:14:53;;;;;;;7.10;3.50;;;13.60;99.90;;;;;;4127390;28;20108;-65
2021/11/04 08:16:54;;;;;;;7.63;3.03;;;13.60;99.90;;;;;;4126996;28;20441;-62
2021/11/04 08:18:55;;;;;;;6.07;3.50;;;13.70;99.90;;;;;;4126662;28;20030;-62
2021/11/04 08:20:56;;;;;;;7.67;3.43;;;13.80;99.90;;;;;;4127139;28;20066;-62
2021/11/04 08:22:57;;;;;;;8.63;3.77;;;13.80;99.90;;;;;;4120808;28;20530;-62
2021/11/04 08:24:59;;;;;;;11.47;5.23;;;13.90;99.90;;;;;;4124925;28;20030;-62
2021/11/04 08:27:01;;;;;;;13.67;5.70;;;14.10;99.90;;;;;;4119327;28;20072;-63
2021/11/04 08:29:02;;;;;;;13.37;6.60;;;14.10;99.90;;;;;;4126676;28;20022;-62
2021/11/04 08:31:05;;;;;;;15.50;6.40;;;14.30;99.90;;;;;;4123376;28;20108;-62
2021/11/04 08:33:06;;;;;;;19.63;6.33;;;14.40;99.90;;;;;;4127020;28;20031;-63
2021/11/04 08:35:07;;;;;;;6.53;3.07;;;14.60;99.90;;;;;;4125286;28;20073;-63
2021/11/04 08:37:11;;;;;;;12.20;3.27;;;14.90;99.90;;;;;;4141855;28;20041;-62
2021/11/04 08:39:14;;;;;;;8.50;3.50;;;15.20;99.90;;;;;;4125706;28;20503;-62
2021/11/04 08:41:15;;;;;;;12.57;5.90;;;15.40;99.90;;;;;;4126076;28;20085;-62
2021/11/04 08:43:17;;;;;;;8.80;3.60;;;15.40;99.90;;;;;;4125788;28;20088;-64
2021/11/04 08:45:19;;;;;;;10.87;4.70;;;15.30;99.90;;;;;;4125447;28;20046;-63
2021/11/04 08:47:20;;;;;;;13.43;4.10;;;15.10;99.90;;;;;;4126132;28;20101;-64
2021/11/04 08:49:21;;;;;;;7.23;3.47;;;14.90;99.90;;;;;;4126464;28;20080;-63
2021/11/04 08:51:22;;;;;;;6.65;3.00;;;14.80;99.90;;;;;;4126149;28;20612;-63
2021/11/04 08:53:24;;;;;;;5.68;2.28;;;14.90;99.90;;;;;;4126120;28;20127;-64
2021/11/04 08:55:25;;;;;;;5.88;3.35;;;15.20;99.90;;;;;;4126842;28;20112;-63
2021/11/04 08:57:26;;;;;;;8.13;3.77;;;15.40;99.90;;;;;;4125522;28;20038;-63
2021/11/04 08:59:28;;;;;;;7.53;3.30;;;15.40;99.90;;;;;;4127108;28;20109;-62
2021/11/04 09:01:29;;;;;;;9.30;4.35;;;15.60;99.90;;;;;;4125397;28;20826;-63
2021/11/04 09:03:30;;;;;;;15.27;5.28;;;15.80;99.90;;;;;;4126563;28;20049;-63
2021/11/04 09:05:31;;;;;;;13.30;5.30;;;16.00;99.90;;;;;;4125496;28;20038;-63
2021/11/04 09:07:33;;;;;;;9.07;3.80;;;16.00;99.90;;;;;;4127314;28;20089;-63
2021/11/04 09:09:34;;;;;;;6.80;3.67;;;15.90;99.90;;;;;;4125703;28;20546;-64
2021/11/04 09:11:36;;;;;;;5.60;3.17;;;15.90;99.90;;;;;;4126098;28;20026;-63
2021/11/04 09:13:37;;;;;;;10.25;3.17;;;16.10;99.90;;;;;;4124166;28;20034;-62
2021/11/04 09:15:39;;;;;;;10.70;3.90;;;16.10;99.90;;;;;;4126408;28;20085;-63
2021/11/04 09:17:41;;;;;;;7.78;2.47;;;16.20;99.90;;;;;;4124848;28;20031;-63
2021/11/04 09:19:42;;;;;;;7.55;2.70;;;16.30;99.90;;;;;;4125589;28;20042;-64
2021/11/04 09:21:43;;;;;;;11.68;2.95;;;16.40;99.90;;;;;;4125518;28;20023;-62
2021/11/04 09:23:44;;;;;;;4.85;3.10;;;16.40;99.90;;;;;;4125178;28;20511;-63
2021/11/04 09:25:46;;;;;;;5.22;2.38;;;16.40;99.90;;;;;;4125108;28;20088;-64
2021/11/04 09:27:48;;;;;;;8.35;3.65;;;16.50;99.90;;;;;;4124645;28;20093;-64
2021/11/04 09:29:50;;;;;;;4.45;2.45;;;16.60;99.80;;;;;;4125722;28;20038;-63
2021/11/04 09:31:51;;;;;;;7.65;3.50;;;16.60;99.70;;;;;;4123276;28;20080;-63
2021/11/04 09:33:57;;;;;;;10.18;3.65;;;16.70;99.60;;;;;;4135508;28;20045;-63
2021/11/04 09:35:58;;;;;;;13.27;3.58;;;16.70;99.80;;;;;;4129939;28;20475;-63
2021/11/04 09:37:59;;;;;;;8.23;2.33;;;16.80;99.80;;;;;;4126420;28;20034;-64
2021/11/04 09:40:01;;;;;;;6.35;2.38;;;16.80;99.60;;;;;;4124216;28;20050;-63
2021/11/04 09:42:06;;;;;;;9.00;2.75;;;16.70;99.40;;;;;;4129183;28;20050;-64
2021/11/04 09:44:09;;;;;;;4.80;2.70;;;16.80;99.60;;;;;;4140993;28;21132;-63
2021/11/04 09:46:10;;;;;;;9.20;3.15;;;16.90;99.40;;;;;;4142901;28;20820;-63
2021/11/04 09:48:12;;;;;;;5.50;3.10;;;17.00;99.40;;;;;;4141508;28;20129;-64
2021/11/04 09:50:17;;;;;;;7.65;3.03;;;17.00;99.30;;;;;;4142097;28;20136;-62
2021/11/04 09:52:23;;;;;;;10.10;2.42;;;17.20;99.20;;;;;;4141169;28;20042;-63
2021/11/04 09:54:24;;;;;;;10.68;2.75;;;17.30;99.00;;;;;;4141995;28;20095;-64
2021/11/04 09:56:25;;;;;;;4.32;1.92;;;17.60;98.90;;;;;;4129426;28;20025;-62
2021/11/04 09:58:28;;;;;;;6.35;2.22;;;17.90;98.60;;;;;;4141653;28;20129;-63
2021/11/04 10:00:47;;;;;;;7.05;1.98;;;18.20;98.20;;;;;;4141625;28;20462;-63
2021/11/04 10:03:09;;;;;;;10.55;2.83;;;18.50;97.20;;;;;;4140950;28;20041;-62
2021/11/04 10:05:14;;;;;;;5.63;2.25;;;18.60;96.90;;;;;;4140734;28;20053;-62
2021/11/04 10:07:17;;;;;;;8.82;2.30;;;18.70;97.30;;;;;;4141358;28;20041;-62
2021/11/04 10:09:27;;;;;;;8.23;2.35;;;18.80;97.30;;;;;;4136607;28;20559;-62
2021/11/04 10:11:34;;;;;;;5.65;2.83;;;18.90;97.20;;;;;;4124458;28;20034;-62
2021/11/04 10:13:36;;;;;;;7.55;2.40;;;18.90;97.10;;;;;;4124375;28;20035;-63
2021/11/04 10:15:40;;;;;;;6.43;2.88;;;18.90;97.30;;;;;;4124717;28;20096;-62
2021/11/04 10:17:41;;;;;;;11.55;2.80;;;19.00;97.10;;;;;;4125418;28;20026;-64
2021/11/04 10:19:42;;;;;;;8.60;3.35;;;19.20;96.80;;;;;;4124551;28;20104;-63
2021/11/04 10:21:50;;;;;;;9.18;3.60;;;19.40;96.80;;;;;;4124590;28;20018;-63
2021/11/04 10:23:52;;;;;;;5.63;2.85;;;19.70;96.40;;;;;;4123720;28;20039;-62
2021/11/04 10:26:18;;;;;;;10.60;4.30;;;19.80;96.20;;;;;;4125383;28;20072;-65
2021/11/04 10:28:30;;;;;;;7.75;3.00;;;19.90;95.60;;;;;;4122492;28;20026;-63
2021/11/04 10:30:50;;;;;;;5.07;3.00;;;20.10;95.50;;;;;;4123595;28;20030;-63
2021/11/04 10:32:51;;;;;;;6.70;2.42;;;20.10;95.00;;;;;;4123644;28;20038;-63
2021/11/04 10:35:03;;;;;;;9.02;3.30;;;20.10;95.80;;;;;;4124700;28;20034;-63
2021/11/04 10:37:30;;;;;;;9.57;2.50;;;20.20;95.30;;;;;;4123549;28;20042;-63
2021/11/04 10:39:39;;;;;;;10.80;4.57;;;20.30;94.80;;;;;;4122905;28;20372;-64
2021/11/04 10:41:43;;;;;;;15.93;3.10;;;20.20;94.90;;;;;;4123481;28;20065;-63